createdAt,value
2018-09-25T00:01:47.787Z,2.90
2018-09-25T00:04:21.946Z,2.70
2018-09-25T00:06:55.794Z,2.63
2018-09-25T00:09:29.583Z,2.93
2018-09-25T00:12:03.515Z,2.90
2018-09-25T00:14:37.760Z,2.80
2018-09-25T00:17:11.598Z,2.80
2018-09-25T00:19:45.482Z,2.83
2018-09-25T00:22:23.326Z,3.10
2018-09-25T00:24:57.106Z,2.90
2018-09-25T00:27:31.017Z,3.23
2018-09-25T00:30:04.894Z,3.30
2018-09-25T00:32:38.997Z,3.10
2018-09-25T00:35:12.978Z,3.47
2018-09-25T00:37:47.983Z,3.47
2018-09-25T00:40:22.015Z,3.33
2018-09-25T00:42:56.631Z,3.57
2018-09-25T00:45:31.364Z,3.20
2018-09-25T00:48:05.730Z,3.27
2018-09-25T00:50:39.653Z,3.20
2018-09-25T00:53:13.522Z,3.27
2018-09-25T00:55:47.727Z,3.57
2018-09-25T00:58:22.197Z,3.30
2018-09-25T01:00:55.879Z,3.60
2018-09-25T01:03:29.848Z,3.33
2018-09-25T01:06:03.728Z,3.90
2018-09-25T01:08:37.598Z,3.40
2018-09-25T01:11:12.053Z,3.53
2018-09-25T01:13:46.157Z,3.77
2018-09-25T01:16:20.203Z,3.80
2018-09-25T01:18:54.013Z,4.20
2018-09-25T01:21:28.155Z,4.20
2018-09-25T01:24:02.515Z,3.37
2018-09-25T01:26:36.447Z,3.63
2018-09-25T01:29:10.299Z,6.10
2018-09-25T01:31:44.199Z,4.30
2018-09-25T01:34:21.572Z,3.30
2018-09-25T01:36:55.762Z,3.40
2018-09-25T01:39:29.641Z,3.73
2018-09-25T01:42:03.519Z,3.37
2018-09-25T01:44:38.172Z,3.30
2018-09-25T01:47:12.821Z,3.50
2018-09-25T01:49:46.780Z,3.20
2018-09-25T01:52:20.644Z,3.50
2018-09-25T01:54:54.566Z,3.73
2018-09-25T01:57:28.482Z,3.10
2018-09-25T02:00:02.554Z,3.43
2018-09-25T02:02:36.462Z,4.00
2018-09-25T02:05:11.047Z,3.87
2018-09-25T02:07:44.987Z,3.90
2018-09-25T02:10:18.918Z,3.60
2018-09-25T02:12:53.398Z,3.53
2018-09-25T02:15:27.275Z,3.90
2018-09-25T02:18:01.710Z,3.50
2018-09-25T02:20:36.089Z,3.40
2018-09-25T02:23:10.199Z,3.50
2018-09-25T02:25:44.328Z,3.60
2018-09-25T02:28:18.663Z,3.93
2018-09-25T02:30:53.251Z,4.00
2018-09-25T02:33:27.211Z,3.47
2018-09-25T02:36:02.096Z,3.50
2018-09-25T02:38:35.915Z,3.70
2018-09-25T02:41:10.607Z,3.53
2018-09-25T02:43:44.557Z,3.87
2018-09-25T02:46:18.927Z,3.67
2018-09-25T02:48:52.516Z,3.80
2018-09-25T02:51:26.483Z,3.67
2018-09-25T02:54:01.700Z,3.67
2018-09-25T02:56:35.934Z,3.87
2018-09-25T02:59:09.906Z,3.90
2018-09-25T03:01:43.724Z,3.40
2018-09-25T03:04:18.111Z,3.60
2018-09-25T03:06:51.995Z,3.50
2018-09-25T03:09:26.471Z,3.63
2018-09-25T03:12:00.249Z,3.40
2018-09-25T03:14:34.878Z,3.57
2018-09-25T03:17:09.368Z,3.27
2018-09-25T03:19:43.062Z,3.00
2018-09-25T03:22:16.950Z,3.40
2018-09-25T03:24:50.886Z,3.30
2018-09-25T03:27:25.257Z,3.17
2018-09-25T03:29:59.486Z,2.73
2018-09-25T03:32:33.603Z,3.20
2018-09-25T03:35:07.566Z,3.53
2018-09-25T03:37:42.863Z,3.43
2018-09-25T03:40:17.648Z,3.40
2018-09-25T03:42:51.604Z,3.40
2018-09-25T03:45:25.660Z,3.53
2018-09-25T03:47:59.609Z,3.27
2018-09-25T03:50:33.711Z,3.00
2018-09-25T03:53:07.525Z,3.07
2018-09-25T03:55:41.630Z,3.50
2018-09-25T03:58:16.065Z,3.13
2018-09-25T04:00:49.966Z,3.50
2018-09-25T04:03:23.930Z,3.23
2018-09-25T04:05:58.567Z,3.50
2018-09-25T04:08:32.748Z,3.13
2018-09-25T04:11:06.703Z,3.80
2018-09-25T04:13:41.583Z,3.30
2018-09-25T04:16:15.587Z,2.83
2018-09-25T04:18:49.710Z,3.10
2018-09-25T04:21:23.658Z,3.20
2018-09-25T04:23:58.055Z,3.10
2018-09-25T04:26:32.021Z,3.57
2018-09-25T04:29:10.988Z,3.43
2018-09-25T04:31:45.232Z,2.90
2018-09-25T04:34:19.815Z,3.13
2018-09-25T04:36:54.088Z,2.70
2018-09-25T04:39:28.131Z,3.00
2018-09-25T04:42:01.979Z,3.00
2018-09-25T04:44:36.437Z,2.83
2018-09-25T04:47:10.579Z,3.30
2018-09-25T04:49:44.463Z,3.10
2018-09-25T04:52:18.359Z,3.23
2018-09-25T04:54:52.272Z,2.80
2018-09-25T04:57:26.208Z,2.50
2018-09-25T05:00:00.835Z,3.07
2018-09-25T05:02:35.089Z,2.87
2018-09-25T05:05:08.894Z,3.57
2018-09-25T05:07:42.979Z,3.67
2018-09-25T05:10:16.852Z,2.90
2018-09-25T05:12:50.313Z,3.47
2018-09-25T05:15:24.115Z,3.40
2018-09-25T05:17:58.170Z,3.93
2018-09-25T05:20:32.048Z,3.40
2018-09-25T05:23:06.003Z,3.30
2018-09-25T05:25:39.805Z,3.37
2018-09-25T05:28:15.128Z,3.00
2018-09-25T05:30:52.358Z,3.50
2018-09-25T05:33:28.276Z,3.00
2018-09-25T05:36:04.552Z,4.20
2018-09-25T05:38:39.641Z,3.83
2018-09-25T05:41:16.339Z,3.10
2018-09-25T05:43:52.871Z,3.30
2018-09-25T05:46:29.406Z,3.40
2018-09-25T05:49:03.707Z,3.40
2018-09-25T05:51:38.721Z,3.70
2018-09-25T05:54:14.681Z,3.63
2018-09-25T05:56:49.613Z,3.60
2018-09-25T05:59:24.026Z,3.53
2018-09-25T06:01:58.636Z,3.30
2018-09-25T06:04:32.906Z,3.60
2018-09-25T06:07:06.877Z,4.17
2018-09-25T06:09:40.853Z,3.60
2018-09-25T06:12:14.602Z,3.47
2018-09-25T06:14:48.750Z,3.40
2018-09-25T06:17:22.801Z,3.67
2018-09-25T06:19:56.642Z,3.50
2018-09-25T06:22:30.576Z,4.23
2018-09-25T06:25:04.445Z,3.60
2018-09-25T06:27:38.365Z,3.60
2018-09-25T06:30:12.848Z,3.57
2018-09-25T06:32:52.997Z,3.40
2018-09-25T06:35:27.202Z,3.47
2018-09-25T06:38:01.129Z,3.43
2018-09-25T06:40:35.289Z,3.40
2018-09-25T06:43:09.372Z,3.77
2018-09-25T06:45:43.232Z,4.03
2018-09-25T06:48:17.144Z,3.33
2018-09-25T06:50:50.838Z,3.80
2018-09-25T06:53:24.469Z,3.80
2018-09-25T06:55:58.391Z,3.43
2018-09-25T06:58:32.463Z,3.30
2018-09-25T07:01:06.168Z,3.50
2018-09-25T07:03:40.115Z,3.40
2018-09-25T07:06:16.677Z,3.67
2018-09-25T07:08:50.783Z,3.30
2018-09-25T07:11:24.722Z,3.80
2018-09-25T07:13:59.463Z,3.53
2018-09-25T07:16:33.386Z,3.60
2018-09-25T07:19:07.344Z,3.70
2018-09-25T07:21:41.351Z,3.37
2018-09-25T07:24:15.299Z,3.40
2018-09-25T07:26:50.257Z,3.20
2018-09-25T07:29:24.398Z,3.30
2018-09-25T07:31:58.447Z,3.43
2018-09-25T07:34:36.538Z,3.33
2018-09-25T07:37:10.495Z,3.27
2018-09-25T07:39:44.411Z,3.30
2018-09-25T07:42:18.601Z,3.17
2018-09-25T07:44:53.289Z,2.80
2018-09-25T07:47:27.090Z,3.20
2018-09-25T07:50:01.058Z,3.10
2018-09-25T07:52:35.050Z,3.13
2018-09-25T07:55:08.714Z,3.03
2018-09-25T07:57:42.470Z,3.10
2018-09-25T08:00:17.153Z,3.10
2018-09-25T08:02:51.342Z,3.10
2018-09-25T08:05:25.627Z,2.90
2018-09-25T08:08:00.176Z,3.00
2018-09-25T08:10:34.590Z,2.90
2018-09-25T08:13:08.645Z,3.23
2018-09-25T08:15:42.488Z,3.10
2018-09-25T08:18:16.502Z,2.70
2018-09-25T08:20:50.334Z,3.00
2018-09-25T08:23:25.007Z,2.80
2018-09-25T08:25:58.914Z,2.40
2018-09-25T08:28:32.727Z,2.60
2018-09-25T08:31:06.822Z,2.50
2018-09-25T08:33:40.663Z,2.90
2018-09-25T08:36:14.631Z,2.90
2018-09-25T08:38:48.667Z,2.70
2018-09-25T08:41:22.484Z,2.77
2018-09-25T08:43:56.580Z,2.60
2018-09-25T08:46:31.291Z,2.40
2018-09-25T08:49:05.728Z,2.20
2018-09-25T08:51:40.013Z,2.40
2018-09-25T08:54:14.208Z,2.57
2018-09-25T08:56:48.142Z,2.57
2018-09-25T08:59:22.034Z,2.40
2018-09-25T09:01:56.103Z,2.37
2018-09-25T09:04:30.006Z,2.20
2018-09-25T09:07:04.110Z,2.43
2018-09-25T09:09:37.987Z,2.33
2018-09-25T09:12:12.278Z,2.57
2018-09-25T09:14:46.814Z,2.40
2018-09-25T09:17:20.750Z,2.40
2018-09-25T09:19:54.641Z,2.40
2018-09-25T09:22:29.286Z,2.40
2018-09-25T09:25:03.386Z,2.57
2018-09-25T09:27:37.236Z,3.00
2018-09-25T09:30:10.769Z,2.80
2018-09-25T09:32:44.611Z,3.33
2018-09-25T09:35:19.234Z,2.67
2018-09-25T09:37:53.843Z,2.53
2018-09-25T09:40:27.563Z,3.83
2018-09-25T09:43:01.723Z,2.67
2018-09-25T09:45:36.531Z,2.77
2018-09-25T09:48:10.883Z,2.40
2018-09-25T09:50:44.322Z,2.70
2018-09-25T09:53:18.196Z,2.60
2018-09-25T09:55:51.891Z,2.70
2018-09-25T09:58:26.000Z,2.63
2018-09-25T10:00:59.924Z,2.90
2018-09-25T10:03:33.813Z,2.83
2018-09-25T10:06:07.724Z,2.53
2018-09-25T10:08:41.639Z,2.50
2018-09-25T10:11:15.095Z,3.03
2018-09-25T10:13:48.510Z,2.50
2018-09-25T10:16:22.003Z,3.63
2018-09-25T10:18:55.955Z,2.47
2018-09-25T10:21:30.530Z,2.30
2018-09-25T10:24:04.142Z,2.23
2018-09-25T10:26:37.519Z,2.20
2018-09-25T10:29:10.917Z,2.27
2018-09-25T10:31:44.284Z,1.90
2018-09-25T10:34:17.766Z,3.33
2018-09-25T10:36:51.275Z,1.93
2018-09-25T10:39:27.775Z,1.90
2018-09-25T10:42:01.682Z,2.30
2018-09-25T10:44:36.372Z,2.20
2018-09-25T10:47:10.575Z,2.20
2018-09-25T10:49:44.727Z,2.20
2018-09-25T10:52:18.849Z,2.73
2018-09-25T10:54:52.778Z,2.13
2018-09-25T10:57:26.460Z,2.10
2018-09-25T10:59:59.842Z,2.00
2018-09-25T11:02:33.944Z,2.50
2018-09-25T11:05:08.829Z,2.10
2018-09-25T11:07:43.229Z,1.90
2018-09-25T11:10:17.203Z,2.33
2018-09-25T11:12:51.490Z,2.17
2018-09-25T11:15:25.096Z,2.20
2018-09-25T11:17:58.457Z,1.87
2018-09-25T11:20:32.023Z,2.30
2018-09-25T11:23:06.726Z,2.07
2018-09-25T11:25:40.764Z,2.30
2018-09-25T11:28:15.002Z,2.33
2018-09-25T11:30:48.941Z,2.20
2018-09-25T11:33:23.062Z,2.00
2018-09-25T11:35:56.979Z,1.90
2018-09-25T11:38:31.057Z,2.20
2018-09-25T11:41:08.495Z,2.17
2018-09-25T11:43:42.633Z,2.10
2018-09-25T11:46:15.999Z,1.90
2018-09-25T11:48:49.351Z,1.70
2018-09-25T11:51:24.612Z,2.00
2018-09-25T11:53:58.399Z,2.10
2018-09-25T11:56:32.318Z,1.90
2018-09-25T11:59:06.172Z,3.80
2018-09-25T12:01:39.567Z,2.97
2018-09-25T12:04:12.969Z,2.40
2018-09-25T12:06:46.999Z,2.30
2018-09-25T12:09:20.615Z,2.20
2018-09-25T12:11:54.021Z,2.23
2018-09-25T12:14:27.513Z,2.43
2018-09-25T12:17:02.053Z,2.30
2018-09-25T12:19:35.962Z,2.10
2018-09-25T12:22:09.388Z,2.20
2018-09-25T12:24:43.287Z,2.30
2018-09-25T12:27:17.127Z,2.40
2018-09-25T12:29:50.771Z,2.10
2018-09-25T12:32:25.310Z,2.33
2018-09-25T12:34:59.249Z,2.20
2018-09-25T12:37:32.682Z,2.00
2018-09-25T12:40:06.092Z,1.97
2018-09-25T12:42:39.640Z,2.10
2018-09-25T12:45:13.632Z,2.20
2018-09-25T12:47:47.609Z,2.20
2018-09-25T12:50:21.229Z,2.03
2018-09-25T12:52:54.910Z,2.10
2018-09-25T12:55:28.294Z,2.20
2018-09-25T12:58:02.379Z,3.70
2018-09-25T13:00:36.320Z,2.70
2018-09-25T13:03:10.323Z,2.00
2018-09-25T13:05:46.180Z,1.87
2018-09-25T13:08:20.130Z,1.63
2018-09-25T13:10:54.355Z,1.80
2018-09-25T13:13:28.314Z,1.60
2018-09-25T13:16:02.468Z,2.70
2018-09-25T13:18:36.532Z,1.60
2018-09-25T13:21:10.677Z,1.80
2018-09-25T13:23:44.604Z,2.63
2018-09-25T13:26:19.226Z,2.27
2018-09-25T13:28:53.091Z,2.20
2018-09-25T13:31:27.855Z,1.77
2018-09-25T13:34:01.995Z,1.60
2018-09-25T13:36:35.839Z,2.43
2018-09-25T13:39:11.912Z,1.73
2018-09-25T13:41:46.030Z,2.20
2018-09-25T13:44:23.643Z,1.70
2018-09-25T13:46:58.174Z,1.60
2018-09-25T13:49:32.103Z,1.67
2018-09-25T13:52:06.287Z,1.80
2018-09-25T13:54:42.622Z,1.90
2018-09-25T13:57:18.166Z,1.70
2018-09-25T13:59:52.829Z,1.67
2018-09-25T14:02:26.879Z,1.60
2018-09-25T14:05:00.466Z,1.70
2018-09-25T14:07:35.031Z,1.73
2018-09-25T14:10:09.118Z,1.80
2018-09-25T14:12:43.795Z,1.70
2018-09-25T14:15:17.734Z,1.70
2018-09-25T14:17:51.880Z,1.50
2018-09-25T14:20:25.810Z,1.50
2018-09-25T14:22:59.756Z,1.60
2018-09-25T14:25:33.578Z,1.60
2018-09-25T14:28:07.741Z,1.40
2018-09-25T14:30:42.702Z,1.60
2018-09-25T14:33:16.659Z,1.90
2018-09-25T14:35:50.479Z,1.37
2018-09-25T14:38:24.597Z,1.70
2018-09-25T14:40:58.770Z,1.87
2018-09-25T14:43:32.714Z,1.63
2018-09-25T14:46:10.510Z,2.10
2018-09-25T14:48:44.577Z,1.67
2018-09-25T14:51:18.611Z,1.50
2018-09-25T14:53:52.370Z,1.47
2018-09-25T14:56:26.475Z,1.67
2018-09-25T14:59:01.047Z,1.60
2018-09-25T15:01:34.984Z,1.40
2018-09-25T15:04:09.815Z,1.60
2018-09-25T15:06:43.663Z,1.43
2018-09-25T15:09:17.761Z,1.50
2018-09-25T15:11:51.924Z,1.50
2018-09-25T15:14:25.811Z,1.70
2018-09-25T15:17:00.283Z,1.50
2018-09-25T15:19:34.428Z,1.50
2018-09-25T15:22:08.889Z,1.70
2018-09-25T15:24:42.613Z,1.60
2018-09-25T15:27:16.683Z,1.80
2018-09-25T15:29:50.744Z,1.80
2018-09-25T15:32:25.235Z,1.60
2018-09-25T15:34:59.224Z,1.60
2018-09-25T15:37:33.047Z,1.70
2018-09-25T15:40:06.964Z,1.90
2018-09-25T15:42:40.758Z,1.90
2018-09-25T15:45:15.053Z,2.00
2018-09-25T15:47:51.920Z,2.40
2018-09-25T15:50:25.820Z,1.97
2018-09-25T15:52:59.691Z,1.70
2018-09-25T15:55:33.849Z,2.27
2018-09-25T15:58:08.392Z,1.90
2018-09-25T16:00:42.495Z,1.80
2018-09-25T16:03:16.846Z,2.20
2018-09-25T16:05:50.998Z,2.07
2018-09-25T16:08:25.803Z,2.10
2018-09-25T16:10:59.694Z,1.83
2018-09-25T16:13:33.568Z,1.90
2018-09-25T16:16:07.492Z,2.27
2018-09-25T16:18:41.298Z,2.60
2018-09-25T16:21:15.524Z,2.00
2018-09-25T16:23:49.424Z,2.03
2018-09-25T16:26:23.341Z,1.90
2018-09-25T16:28:58.012Z,2.27
2018-09-25T16:31:32.318Z,2.07
2018-09-25T16:34:06.401Z,2.03
2018-09-25T16:36:40.354Z,2.10
2018-09-25T16:39:14.999Z,1.70
2018-09-25T16:41:49.226Z,2.00
2018-09-25T16:44:23.090Z,1.87
2018-09-25T16:46:57.851Z,1.90
2018-09-25T16:49:32.431Z,2.33
2018-09-25T16:52:06.731Z,2.37
2018-09-25T16:54:40.813Z,2.20
2018-09-25T16:57:14.743Z,1.83
2018-09-25T16:59:49.198Z,2.50
2018-09-25T17:03:52.104Z,1.70
2018-09-25T17:06:25.927Z,1.80
2018-09-25T17:09:00.078Z,1.97
2018-09-25T17:11:34.189Z,1.80
2018-09-25T17:14:08.845Z,1.83
2018-09-25T17:16:43.027Z,1.60
2018-09-25T17:19:17.958Z,1.70
2018-09-25T17:21:51.868Z,1.90
2018-09-25T17:24:26.549Z,1.80
2018-09-25T17:27:00.950Z,2.23
2018-09-25T17:29:35.142Z,1.80
2018-09-25T17:32:09.249Z,2.27
2018-09-25T17:34:43.583Z,2.30
2018-09-25T17:37:17.677Z,1.83
2018-09-25T17:39:53.274Z,1.97
2018-09-25T17:42:28.702Z,1.63
2018-09-25T17:45:04.127Z,1.90
2018-09-25T17:47:39.270Z,1.73
2018-09-25T17:50:17.839Z,1.63
2018-09-25T17:52:52.116Z,1.70
2018-09-25T17:55:36.030Z,1.57
2018-09-25T17:58:12.082Z,1.70
2018-09-25T18:00:46.482Z,1.70
2018-09-25T18:03:20.626Z,1.70
2018-09-25T18:05:54.739Z,1.83
2018-09-25T18:08:33.858Z,1.90
2018-09-25T18:11:08.653Z,1.70
2018-09-25T18:13:42.601Z,1.80
2018-09-25T18:16:17.594Z,1.80
2018-09-25T18:18:54.778Z,2.03
2018-09-25T18:21:32.496Z,2.00
2018-09-25T18:24:10.102Z,1.67
2018-09-25T18:26:50.498Z,1.60
2018-09-25T18:29:24.634Z,1.70
2018-09-25T18:31:58.562Z,1.67
2018-09-25T18:34:33.158Z,1.87
2018-09-25T18:37:07.211Z,1.63
2018-09-25T18:39:41.243Z,1.90
2018-09-25T18:42:15.453Z,1.87
2018-09-25T18:44:49.507Z,1.80
2018-09-25T18:47:24.422Z,1.70
2018-09-25T18:49:58.081Z,1.57
2018-09-25T18:52:35.890Z,1.50
2018-09-25T18:55:10.192Z,2.50
2018-09-25T18:57:44.406Z,6.30
2018-09-25T19:00:18.374Z,2.90
2018-09-25T19:02:52.456Z,2.40
2018-09-25T19:05:26.442Z,1.97
2018-09-25T19:08:00.487Z,2.50
2018-09-25T19:10:35.116Z,3.13
2018-09-25T19:13:09.219Z,4.20
2018-09-25T19:15:43.515Z,2.80
2018-09-25T19:18:17.687Z,2.53
2018-09-25T19:20:51.685Z,2.40
2018-09-25T19:23:25.698Z,5.30
2018-09-25T19:26:00.089Z,12.23
2018-09-25T19:28:34.941Z,10.07
2018-09-25T19:31:09.685Z,9.00
2018-09-25T19:33:43.696Z,5.03
2018-09-25T19:36:18.169Z,3.50
2018-09-25T19:38:52.599Z,3.97
2018-09-25T19:41:27.175Z,5.10
2018-09-25T19:44:01.440Z,5.63
2018-09-25T19:46:35.869Z,5.30
2018-09-25T19:49:13.278Z,5.77
2018-09-25T19:51:48.701Z,5.70
2018-09-25T19:54:29.575Z,4.53
2018-09-25T19:57:05.571Z,5.47
2018-09-25T19:59:40.411Z,5.97
2018-09-25T20:02:15.787Z,5.53
2018-09-25T20:04:54.785Z,5.57
2018-09-25T20:07:34.186Z,5.27
2018-09-25T20:10:11.241Z,4.47
2018-09-25T20:12:45.426Z,4.07
2018-09-25T20:15:19.520Z,3.80
2018-09-25T20:17:53.456Z,4.53
2018-09-25T20:20:27.771Z,3.60
2018-09-25T20:23:02.521Z,3.60
2018-09-25T20:25:37.204Z,3.63
2018-09-25T20:28:11.657Z,3.30
2018-09-25T20:30:54.869Z,3.53
2018-09-25T20:33:29.812Z,3.03
2018-09-25T20:36:04.012Z,3.07
2018-09-25T20:38:38.143Z,2.97
2018-09-25T20:41:13.068Z,3.20
2018-09-25T20:43:47.443Z,3.23
2018-09-25T20:46:21.954Z,2.53
2018-09-25T20:48:56.110Z,2.87
2018-09-25T20:51:30.072Z,2.70
2018-09-25T20:54:04.097Z,2.67
2018-09-25T20:56:39.434Z,2.47
2018-09-25T20:59:13.397Z,2.60
2018-09-25T21:01:47.595Z,2.90
2018-09-25T21:04:22.288Z,2.93
2018-09-25T21:06:56.282Z,2.73
2018-09-25T21:09:30.354Z,2.93
2018-09-25T21:12:04.059Z,2.80
2018-09-25T21:14:37.870Z,2.43
2018-09-25T21:17:11.823Z,2.70
2018-09-25T21:19:45.962Z,2.80
2018-09-25T21:22:19.862Z,2.77
2018-09-25T21:24:55.076Z,3.23
2018-09-25T21:27:29.259Z,2.57
2018-09-25T21:30:03.254Z,3.10
2018-09-25T21:32:37.792Z,2.77
2018-09-25T21:35:12.101Z,3.10
2018-09-25T21:37:46.046Z,2.70
2018-09-25T21:40:19.909Z,2.90
2018-09-25T21:42:54.353Z,2.60
2018-09-25T21:45:28.208Z,2.40
2018-09-25T21:48:02.897Z,2.47
2018-09-25T21:50:36.750Z,2.50
2018-09-25T21:53:10.685Z,3.00
2018-09-25T21:55:44.560Z,3.10
2018-09-25T21:58:24.626Z,2.67
2018-09-25T22:00:58.784Z,2.87
2018-09-25T22:03:32.698Z,2.70
2018-09-25T22:06:07.166Z,2.83
2018-09-25T22:08:41.096Z,3.03
2018-09-25T22:11:15.145Z,2.50
2018-09-25T22:13:49.487Z,2.47
2018-09-25T22:16:23.361Z,2.50
2018-09-25T22:18:57.994Z,2.97
2018-09-25T22:21:40.374Z,2.53
2018-09-25T22:24:14.907Z,2.63
2018-09-25T22:26:49.509Z,2.60
2018-09-25T22:29:23.423Z,2.60
2018-09-25T22:31:57.422Z,2.40
2018-09-25T22:34:31.613Z,2.67
2018-09-25T22:37:05.830Z,2.53
2018-09-25T22:39:39.973Z,2.77
2018-09-25T22:42:13.768Z,2.27
2018-09-25T22:44:47.980Z,2.30
2018-09-25T22:47:21.834Z,2.60
2018-09-25T22:49:55.739Z,2.30
2018-09-25T22:52:30.199Z,2.50
2018-09-25T22:55:04.175Z,2.57
2018-09-25T22:57:38.538Z,3.10
2018-09-25T23:00:16.181Z,2.83
2018-09-25T23:02:50.372Z,3.00
2018-09-25T23:05:24.017Z,3.07
2018-09-25T23:07:58.584Z,3.37
2018-09-25T23:10:33.133Z,3.20
2018-09-25T23:13:07.118Z,3.30
2018-09-25T23:15:41.179Z,3.17
2018-09-25T23:18:15.150Z,3.10
2018-09-25T23:20:49.215Z,3.20
2018-09-25T23:23:24.621Z,3.17
2018-09-25T23:25:58.694Z,2.90
2018-09-25T23:28:32.519Z,3.23
2018-09-25T23:31:07.189Z,3.10
2018-09-25T23:33:42.046Z,2.80
2018-09-25T23:36:30.770Z,2.97
2018-09-25T23:39:09.359Z,3.23
2018-09-25T23:41:47.607Z,3.00
2018-09-25T23:44:24.086Z,3.03
2018-09-25T23:47:00.296Z,3.30
2018-09-25T23:49:34.581Z,2.73
2018-09-25T23:52:11.305Z,3.00
2018-09-25T23:54:53.483Z,2.80
2018-09-25T23:57:41.599Z,2.60
